createdAt,value
2023-04-22T00:00:15.205Z,7.37
2023-04-22T00:02:42.399Z,7.50
2023-04-22T00:05:13.610Z,7.77
2023-04-22T00:07:43.073Z,7.93
2023-04-22T00:10:11.508Z,7.40
2023-04-22T00:12:38.844Z,8.23
2023-04-22T00:15:06.608Z,7.97
2023-04-22T00:17:34.098Z,8.20
2023-04-22T00:20:01.996Z,7.80
2023-04-22T00:22:29.108Z,8.07
2023-04-22T00:24:56.281Z,8.70
2023-04-22T00:27:23.428Z,7.67
2023-04-22T00:29:50.700Z,7.30
2023-04-22T00:32:17.811Z,8.23
2023-04-22T00:34:44.867Z,7.33
2023-04-22T00:37:12.108Z,6.70
2023-04-22T00:39:42.098Z,7.23
2023-04-22T00:42:10.488Z,7.50
2023-04-22T00:44:37.688Z,7.23
2023-04-22T00:47:06.335Z,7.37
2023-04-22T00:49:33.435Z,7.30
2023-04-22T00:52:00.597Z,7.03
2023-04-22T00:54:28.786Z,6.77
2023-04-22T00:56:57.826Z,8.23
2023-04-22T00:59:26.171Z,7.53
2023-04-22T01:01:53.962Z,8.73
2023-04-22T01:04:22.054Z,7.57
2023-04-22T01:06:49.824Z,8.00
2023-04-22T01:09:17.019Z,8.13
2023-04-22T01:11:44.102Z,8.47
2023-04-22T01:14:11.243Z,9.03
2023-04-22T01:16:39.190Z,8.77
2023-04-22T01:19:08.399Z,7.90
2023-04-22T01:21:35.844Z,8.33
2023-04-22T01:24:03.157Z,7.57
2023-04-22T01:26:30.342Z,10.90
2023-04-22T01:28:57.583Z,9.60
2023-04-22T01:31:25.026Z,9.30
2023-04-22T01:33:52.369Z,9.67
2023-04-22T01:36:19.461Z,10.00
2023-04-22T01:38:46.643Z,9.47
2023-04-22T01:41:14.851Z,8.70
2023-04-22T01:43:42.766Z,8.63
2023-04-22T01:46:10.384Z,8.37
2023-04-22T01:48:37.959Z,8.57
2023-04-22T01:51:05.113Z,8.07
2023-04-22T01:53:32.229Z,8.20
2023-04-22T01:56:00.427Z,8.90
2023-04-22T01:58:29.752Z,7.43
2023-04-22T02:00:56.872Z,7.33
2023-04-22T02:03:24.250Z,8.67
2023-04-22T02:05:51.459Z,8.37
2023-04-22T02:08:18.522Z,8.10
2023-04-22T02:10:45.599Z,7.93
2023-04-22T02:13:12.767Z,7.23
2023-04-22T02:15:41.384Z,7.30
2023-04-22T02:18:10.168Z,7.90
2023-04-22T02:20:37.613Z,8.23
2023-04-22T02:23:05.264Z,7.67
2023-04-22T02:25:32.363Z,7.80
2023-04-22T02:27:59.510Z,8.20
2023-04-22T02:30:26.595Z,7.27
2023-04-22T02:32:53.694Z,8.10
2023-04-22T02:35:20.925Z,8.13
2023-04-22T02:37:48.044Z,7.77
2023-04-22T02:40:15.143Z,7.97
2023-04-22T02:42:42.239Z,8.87
2023-04-22T02:45:09.553Z,7.20
2023-04-22T02:47:36.654Z,7.70
2023-04-22T02:50:03.938Z,7.53
2023-04-22T02:52:31.088Z,7.10
2023-04-22T02:54:58.215Z,7.57
2023-04-22T02:57:25.338Z,6.10
2023-04-22T02:59:52.509Z,6.73
2023-04-22T03:02:19.696Z,6.40
2023-04-22T03:04:46.950Z,6.33
2023-04-22T03:07:14.392Z,6.93
2023-04-22T03:09:41.693Z,6.50
2023-04-22T03:12:09.136Z,6.20
2023-04-22T03:14:36.199Z,7.97
2023-04-22T03:17:03.397Z,9.97
2023-04-22T03:19:30.523Z,6.67
2023-04-22T03:21:59.187Z,7.03
2023-04-22T03:24:26.283Z,7.00
2023-04-22T03:26:53.383Z,9.87
2023-04-22T03:29:20.470Z,6.63
2023-04-22T03:31:47.548Z,5.97
2023-04-22T03:34:14.726Z,5.60
2023-04-22T03:36:41.781Z,5.73
2023-04-22T03:39:08.979Z,6.10
2023-04-22T03:41:36.038Z,6.57
2023-04-22T03:44:03.095Z,5.87
2023-04-22T03:46:30.802Z,6.67
2023-04-22T03:48:57.950Z,5.67
2023-04-22T03:51:25.039Z,5.87
2023-04-22T03:53:52.132Z,5.90
2023-04-22T03:56:19.271Z,5.70
2023-04-22T03:58:46.503Z,6.20
2023-04-22T04:01:13.618Z,6.07
2023-04-22T04:03:41.073Z,5.77
2023-04-22T04:06:08.633Z,5.87
2023-04-22T04:08:35.696Z,5.90
2023-04-22T04:11:02.829Z,6.80
2023-04-22T04:13:32.196Z,6.03
2023-04-22T04:16:00.292Z,6.20
2023-04-22T04:18:29.491Z,7.27
2023-04-22T04:20:56.959Z,6.63
2023-04-22T04:23:24.032Z,6.33
2023-04-22T04:25:51.935Z,7.73
2023-04-22T04:28:19.678Z,6.27
2023-04-22T04:30:47.105Z,5.90
2023-04-22T04:33:16.767Z,6.00
2023-04-22T04:35:44.750Z,5.97
2023-04-22T04:38:12.772Z,6.17
2023-04-22T04:40:39.848Z,6.53
2023-04-22T04:43:08.812Z,5.93
2023-04-22T04:45:39.213Z,6.03
2023-04-22T04:48:07.325Z,7.03
2023-04-22T04:50:34.470Z,7.70
2023-04-22T04:53:02.358Z,7.63
2023-04-22T04:55:29.501Z,7.30
2023-04-22T04:57:56.605Z,7.23
2023-04-22T05:00:23.666Z,7.37
2023-04-22T05:02:51.033Z,8.13
2023-04-22T05:05:18.365Z,8.67
2023-04-22T05:07:45.647Z,7.37
2023-04-22T05:10:13.028Z,7.33
2023-04-22T05:12:40.900Z,7.40
2023-04-22T05:15:08.503Z,8.07
2023-04-22T05:17:35.622Z,7.27
2023-04-22T05:20:03.143Z,6.90
2023-04-22T05:22:30.239Z,6.30
2023-04-22T05:24:57.376Z,5.90
2023-04-22T05:27:24.568Z,6.77
2023-04-22T05:29:51.686Z,5.13
2023-04-22T05:32:18.824Z,6.17
2023-04-22T05:34:46.185Z,6.03
2023-04-22T05:37:13.347Z,6.10
2023-04-22T05:39:41.374Z,6.37
2023-04-22T05:42:09.031Z,6.10
2023-04-22T05:44:36.109Z,6.07
2023-04-22T05:47:03.351Z,5.43
2023-04-22T05:49:30.466Z,5.17
2023-04-22T05:51:57.528Z,5.97
2023-04-22T05:54:24.719Z,5.40
2023-04-22T05:56:51.989Z,4.97
2023-04-22T05:59:20.338Z,10.03
2023-04-22T06:01:48.913Z,6.97
2023-04-22T06:04:16.222Z,9.40
2023-04-22T06:06:43.548Z,5.37
2023-04-22T06:09:10.727Z,5.87
2023-04-22T06:11:37.857Z,4.80
2023-04-22T06:14:04.958Z,4.57
2023-04-22T06:16:32.112Z,3.87
2023-04-22T06:18:59.252Z,4.63
2023-04-22T06:21:26.689Z,4.63
2023-04-22T06:23:53.794Z,4.70
2023-04-22T06:26:20.902Z,4.27
2023-04-22T06:28:47.955Z,4.17
2023-04-22T06:31:15.091Z,3.47
2023-04-22T06:33:42.205Z,3.67
2023-04-22T06:36:09.609Z,4.50
2023-04-22T06:38:36.692Z,4.50
2023-04-22T06:41:03.800Z,3.30
2023-04-22T06:43:30.877Z,3.57
2023-04-22T06:45:57.960Z,4.43
2023-04-22T06:48:25.046Z,3.70
2023-04-22T06:50:52.177Z,3.30
2023-04-22T06:53:19.312Z,3.13
2023-04-22T06:55:46.728Z,3.03
2023-04-22T06:58:13.847Z,2.67
2023-04-22T07:00:40.991Z,3.00
2023-04-22T07:03:11.234Z,3.33
2023-04-22T07:05:39.758Z,2.97
2023-04-22T07:08:07.118Z,2.40
2023-04-22T07:10:34.449Z,2.73
2023-04-22T07:13:01.628Z,2.53
2023-04-22T07:15:28.824Z,2.83
2023-04-22T07:17:55.961Z,2.93
2023-04-22T07:20:23.237Z,2.90
2023-04-22T07:22:50.379Z,2.13
2023-04-22T07:25:17.561Z,2.70
2023-04-22T07:27:44.658Z,3.17
2023-04-22T07:30:13.325Z,2.53
2023-04-22T07:32:40.644Z,2.67
2023-04-22T07:35:08.990Z,2.80
2023-04-22T07:37:36.184Z,2.50
2023-04-22T07:40:03.336Z,2.90
2023-04-22T07:42:30.910Z,2.47
2023-04-22T07:44:57.982Z,2.42
2023-04-22T07:47:25.676Z,2.38
2023-04-22T07:49:52.754Z,2.42
2023-04-22T07:52:20.953Z,2.33
2023-04-22T07:54:48.065Z,3.15
2023-04-22T07:57:15.218Z,2.83
2023-04-22T07:59:42.399Z,2.42
2023-04-22T08:02:09.767Z,2.30
2023-04-22T08:04:37.473Z,2.42
2023-04-22T08:07:17.148Z,2.00
2023-04-22T08:09:52.184Z,2.00
2023-04-22T08:12:19.386Z,2.35
2023-04-22T08:14:46.457Z,2.70
2023-04-22T08:17:13.597Z,2.25
2023-04-22T08:19:40.914Z,2.67
2023-04-22T08:22:08.572Z,2.42
2023-04-22T08:24:35.670Z,2.50
2023-04-22T08:27:02.878Z,2.97
2023-04-22T08:29:29.956Z,3.28
2023-04-22T08:31:57.018Z,2.72
2023-04-22T08:34:26.100Z,2.00
2023-04-22T08:36:53.179Z,2.28
2023-04-22T08:39:20.327Z,2.35
2023-04-22T08:41:47.698Z,2.50
2023-04-22T08:44:15.489Z,2.80
2023-04-22T08:46:49.021Z,2.40
2023-04-22T08:49:16.347Z,2.38
2023-04-22T08:51:44.096Z,2.72
2023-04-22T08:54:11.658Z,1.98
2023-04-22T08:56:42.581Z,1.90
2023-04-22T08:59:11.409Z,2.30
2023-04-22T09:01:42.207Z,2.22
2023-04-22T09:04:14.055Z,2.75
2023-04-22T09:06:40.901Z,3.38
2023-04-22T09:09:08.878Z,2.85
2023-04-22T09:11:36.252Z,2.10
2023-04-22T09:14:06.644Z,2.65
2023-04-22T09:16:42.976Z,2.78
2023-04-22T09:19:13.775Z,1.98
2023-04-22T09:21:41.409Z,2.22
2023-04-22T09:24:10.719Z,2.47
2023-04-22T09:26:42.277Z,2.70
2023-04-22T09:29:14.432Z,2.30
2023-04-22T09:31:41.426Z,2.47
2023-04-22T09:34:08.981Z,2.53
2023-04-22T09:36:37.836Z,2.30
2023-04-22T09:39:08.852Z,2.33
2023-04-22T09:41:36.750Z,2.30
2023-04-22T09:44:04.748Z,2.47
2023-04-22T09:46:33.884Z,2.20
2023-04-22T09:49:00.886Z,2.40
2023-04-22T09:51:28.588Z,2.10
2023-04-22T09:54:04.226Z,2.33
2023-04-22T09:56:49.419Z,2.20
2023-04-22T09:59:22.027Z,2.55
2023-04-22T10:01:49.883Z,4.63
2023-04-22T10:04:21.366Z,2.75
2023-04-22T10:06:49.184Z,2.30
2023-04-22T10:09:20.456Z,2.50
2023-04-22T10:11:49.371Z,2.83
2023-04-22T10:14:16.345Z,2.47
2023-04-22T10:16:47.873Z,2.40
2023-04-22T10:19:21.711Z,2.10
2023-04-22T10:21:52.272Z,3.00
2023-04-22T10:24:19.755Z,2.90
2023-04-22T10:26:59.823Z,2.63
2023-04-22T10:29:34.846Z,2.28
2023-04-22T10:32:17.435Z,2.72
2023-04-22T10:34:48.178Z,3.38
2023-04-22T10:37:18.851Z,3.00
2023-04-22T10:40:16.040Z,2.60
2023-04-22T10:42:49.161Z,3.15
2023-04-22T10:45:16.026Z,2.80
2023-04-22T10:47:43.636Z,2.20
2023-04-22T10:50:21.754Z,3.42
2023-04-22T10:52:52.873Z,2.63
2023-04-22T10:55:21.328Z,2.53
2023-04-22T10:57:49.902Z,2.55
2023-04-22T11:00:17.225Z,2.53
2023-04-22T11:02:51.840Z,2.50
2023-04-22T11:05:25.954Z,2.83
2023-04-22T11:07:55.881Z,2.17
2023-04-22T11:10:44.165Z,2.70
2023-04-22T11:13:13.840Z,2.47
2023-04-22T11:15:41.975Z,2.35
2023-04-22T11:18:11.183Z,1.95
2023-04-22T11:20:38.660Z,2.30
2023-04-22T11:23:05.808Z,2.30
2023-04-22T11:25:32.965Z,2.40
2023-04-22T11:28:00.285Z,2.17
2023-04-22T11:30:28.116Z,2.20
2023-04-22T11:32:56.815Z,2.33
2023-04-22T11:35:34.641Z,2.50
2023-04-22T11:38:06.458Z,1.98
2023-04-22T11:40:37.806Z,2.00
2023-04-22T11:43:07.593Z,2.40
2023-04-22T11:45:35.902Z,1.70
2023-04-22T11:48:03.669Z,2.33
2023-04-22T11:50:32.305Z,2.05
2023-04-22T11:53:03.891Z,1.95
2023-04-22T11:55:30.988Z,1.92
2023-04-22T11:57:59.466Z,2.42
2023-04-22T12:00:34.146Z,2.90
2023-04-22T12:03:19.819Z,2.33
2023-04-22T12:05:48.285Z,2.38
2023-04-22T12:08:16.477Z,2.50
2023-04-22T12:10:45.194Z,2.13
2023-04-22T12:13:30.257Z,2.58
2023-04-22T12:15:59.716Z,2.55
2023-04-22T12:18:30.755Z,2.33
2023-04-22T12:21:17.691Z,2.30
2023-04-22T12:23:44.790Z,2.72
2023-04-22T12:26:15.130Z,2.63
2023-04-22T12:28:44.156Z,2.50
2023-04-22T12:31:11.703Z,2.55
2023-04-22T12:33:39.332Z,2.30
2023-04-22T12:36:07.370Z,2.72
2023-04-22T12:38:34.876Z,2.63
2023-04-22T12:41:02.327Z,2.42
2023-04-22T12:43:29.459Z,2.90
2023-04-22T12:45:56.603Z,2.78
2023-04-22T12:48:23.686Z,2.42
2023-04-22T12:50:50.769Z,2.70
2023-04-22T12:53:17.832Z,2.70
2023-04-22T12:55:46.104Z,2.63
2023-04-22T12:58:13.431Z,2.63
2023-04-22T13:00:40.868Z,2.97
2023-04-22T13:03:08.463Z,2.80
2023-04-22T13:05:35.923Z,2.40
2023-04-22T13:08:07.520Z,2.40
2023-04-22T13:10:35.664Z,3.03
2023-04-22T13:13:16.846Z,3.38
2023-04-22T13:15:45.366Z,3.78
2023-04-22T13:18:12.535Z,3.22
2023-04-22T13:20:40.805Z,3.17
2023-04-22T13:23:08.309Z,3.42
2023-04-22T13:25:36.140Z,2.85
2023-04-22T13:28:03.242Z,3.03
2023-04-22T13:30:30.335Z,3.30
2023-04-22T13:32:57.457Z,3.20
2023-04-22T13:35:24.744Z,3.83
2023-04-22T13:37:51.836Z,4.30
2023-04-22T13:40:18.979Z,3.60
2023-04-22T13:42:46.111Z,3.42
2023-04-22T13:45:13.249Z,3.88
2023-04-22T13:47:40.558Z,3.65
2023-04-22T13:50:07.983Z,3.67
2023-04-22T13:52:35.222Z,4.40
2023-04-22T13:55:03.544Z,4.72
2023-04-22T13:57:30.685Z,4.05
2023-04-22T13:59:57.828Z,3.80
2023-04-22T14:02:25.058Z,3.92
2023-04-22T14:04:52.324Z,5.25
2023-04-22T14:07:19.794Z,4.53
2023-04-22T14:09:47.100Z,4.47
2023-04-22T14:12:14.455Z,3.97
2023-04-22T14:14:41.543Z,3.88
2023-04-22T14:17:08.866Z,3.42
2023-04-22T14:19:39.396Z,3.13
2023-04-22T14:22:06.867Z,3.30
2023-04-22T14:24:34.079Z,3.10
2023-04-22T14:27:03.993Z,3.00
2023-04-22T14:29:31.800Z,3.10
2023-04-22T14:31:59.398Z,3.67
2023-04-22T14:34:27.337Z,3.90
2023-04-22T14:36:54.830Z,4.55
2023-04-22T14:39:22.059Z,3.85
2023-04-22T14:41:49.739Z,3.92
2023-04-22T14:44:17.252Z,4.40
2023-04-22T14:46:45.170Z,3.78
2023-04-22T14:49:12.287Z,3.92
2023-04-22T14:51:39.418Z,4.20
2023-04-22T14:54:06.771Z,6.07
2023-04-22T14:56:33.887Z,7.47
2023-04-22T14:59:01.075Z,10.52
2023-04-22T15:01:28.129Z,8.27
2023-04-22T15:03:55.360Z,7.35
2023-04-22T15:06:23.479Z,5.15
2023-04-22T15:08:51.878Z,5.30
2023-04-22T15:11:19.170Z,4.10
2023-04-22T15:13:46.261Z,5.28
2023-04-22T15:16:13.584Z,5.57
2023-04-22T15:18:40.793Z,4.60
2023-04-22T15:21:10.444Z,4.38
2023-04-22T15:23:37.679Z,4.10
2023-04-22T15:26:04.832Z,4.63
2023-04-22T15:28:32.102Z,4.47
2023-04-22T15:30:59.266Z,5.18
2023-04-22T15:33:26.369Z,6.22
2023-04-22T15:35:53.472Z,4.63
2023-04-22T15:38:21.087Z,5.07
2023-04-22T15:40:48.155Z,4.57
2023-04-22T15:43:15.448Z,3.85
2023-04-22T15:45:43.108Z,4.72
2023-04-22T15:48:10.372Z,5.38
2023-04-22T15:50:38.869Z,4.35
2023-04-22T15:53:06.691Z,4.75
2023-04-22T15:55:33.349Z,4.50
2023-04-22T15:58:00.549Z,4.65
2023-04-22T16:00:27.338Z,4.65
2023-04-22T16:02:57.428Z,5.05
2023-04-22T16:05:25.172Z,7.97
2023-04-22T16:07:54.005Z,5.30
2023-04-22T16:10:21.505Z,5.05
2023-04-22T16:12:48.705Z,4.43
2023-04-22T16:15:16.527Z,4.50
2023-04-22T16:17:44.273Z,4.43
2023-04-22T16:20:11.516Z,3.80
2023-04-22T16:22:38.640Z,4.15
2023-04-22T16:25:06.132Z,4.70
2023-04-22T16:27:33.282Z,6.88
2023-04-22T16:30:00.519Z,5.53
2023-04-22T16:32:27.681Z,5.50
2023-04-22T16:34:54.873Z,5.72
2023-04-22T16:37:21.986Z,17.17
2023-04-22T16:39:49.254Z,5.88
2023-04-22T16:42:16.349Z,5.90
2023-04-22T16:44:43.510Z,3.83
2023-04-22T16:47:10.770Z,3.58
2023-04-22T16:49:40.779Z,4.13
2023-04-22T16:52:08.495Z,4.68
2023-04-22T16:54:35.666Z,4.60
2023-04-22T16:57:04.960Z,4.95
2023-04-22T16:59:32.066Z,4.80
2023-04-22T17:01:59.255Z,4.70
2023-04-22T17:04:26.897Z,4.82
2023-04-22T17:06:54.225Z,4.97
2023-04-22T17:09:21.356Z,5.22
2023-04-22T17:11:48.448Z,5.47
2023-04-22T17:14:15.545Z,5.65
2023-04-22T17:16:42.629Z,5.25
2023-04-22T17:19:09.678Z,5.63
2023-04-22T17:21:37.584Z,5.47
2023-04-22T17:24:05.813Z,5.97
2023-04-22T17:26:33.613Z,6.00
2023-04-22T17:29:00.781Z,6.53
2023-04-22T17:31:27.954Z,7.35
2023-04-22T17:33:55.065Z,5.45
2023-04-22T17:36:22.174Z,6.35
2023-04-22T17:38:49.258Z,5.45
2023-04-22T17:41:18.239Z,6.43
2023-04-22T17:43:45.440Z,5.85
2023-04-22T17:46:12.617Z,5.90
2023-04-22T17:48:40.938Z,6.90
2023-04-22T17:51:08.513Z,6.20
2023-04-22T17:53:37.480Z,6.22
2023-04-22T17:56:04.677Z,6.50
2023-04-22T17:58:31.833Z,6.80
2023-04-22T18:00:59.114Z,6.28
2023-04-22T18:03:26.584Z,5.80
2023-04-22T18:05:53.800Z,10.20
2023-04-22T18:08:20.925Z,5.90
2023-04-22T18:10:48.263Z,4.80
2023-04-22T18:13:15.372Z,3.83
2023-04-22T18:15:42.453Z,3.85
2023-04-22T18:18:09.560Z,3.72
2023-04-22T18:20:36.716Z,3.75
2023-04-22T18:23:03.910Z,4.65
2023-04-22T18:25:31.043Z,5.72
2023-04-22T18:27:58.187Z,5.07
2023-04-22T18:30:25.578Z,4.47
2023-04-22T18:32:53.201Z,3.95
2023-04-22T18:35:20.761Z,4.20
2023-04-22T18:37:48.247Z,3.85
2023-04-22T18:40:17.154Z,4.00
2023-04-22T18:42:44.986Z,4.13
2023-04-22T18:45:12.404Z,3.70
2023-04-22T18:47:39.671Z,3.75
2023-04-22T18:50:07.341Z,4.60
2023-04-22T18:52:34.541Z,4.20
2023-04-22T18:55:03.036Z,3.20
2023-04-22T18:57:30.145Z,3.88
2023-04-22T18:59:57.226Z,4.05
2023-04-22T19:02:24.401Z,3.55
2023-04-22T19:04:54.117Z,4.20
2023-04-22T19:07:21.492Z,4.50
2023-04-22T19:09:48.650Z,4.72
2023-04-22T19:12:18.858Z,4.45
2023-04-22T19:14:47.811Z,4.40
2023-04-22T19:17:15.056Z,5.63
2023-04-22T19:19:42.517Z,5.43
2023-04-22T19:22:09.985Z,5.57
2023-04-22T19:24:39.280Z,6.13
2023-04-22T19:27:12.120Z,7.60
2023-04-22T19:29:43.026Z,8.57
2023-04-22T19:32:11.583Z,12.17
2023-04-22T19:34:39.293Z,12.47
2023-04-22T19:37:06.685Z,11.53
2023-04-22T19:39:33.847Z,10.30
2023-04-22T19:42:03.716Z,8.60
2023-04-22T19:44:31.002Z,9.00
2023-04-22T19:46:58.210Z,8.20
2023-04-22T19:49:25.642Z,10.10
2023-04-22T19:51:53.157Z,9.10
2023-04-22T19:54:22.189Z,9.23
2023-04-22T19:56:49.801Z,9.80
2023-04-22T19:59:17.060Z,10.40
2023-04-22T20:01:44.289Z,12.07
2023-04-22T20:04:11.641Z,14.10
2023-04-22T20:06:39.477Z,18.97
2023-04-22T20:09:07.616Z,21.83
2023-04-22T20:11:35.524Z,20.67
2023-04-22T20:14:03.125Z,17.47
2023-04-22T20:16:30.366Z,15.03
2023-04-22T20:18:57.513Z,18.87
2023-04-22T20:21:24.686Z,17.40
2023-04-22T20:23:52.815Z,17.63
2023-04-22T20:26:20.675Z,16.20
2023-04-22T20:28:51.820Z,17.60
2023-04-22T20:31:22.263Z,17.87
2023-04-22T20:33:50.121Z,18.60
2023-04-22T20:36:18.098Z,22.80
2023-04-22T20:38:48.808Z,22.13
2023-04-22T20:41:18.699Z,23.93
2023-04-22T20:43:46.473Z,25.00
2023-04-22T20:46:13.704Z,24.93
2023-04-22T20:48:41.223Z,23.03
2023-04-22T20:51:08.594Z,26.33
2023-04-22T20:53:36.238Z,23.50
2023-04-22T20:56:03.437Z,22.87
2023-04-22T20:58:32.416Z,21.83
2023-04-22T21:00:59.685Z,22.27
2023-04-22T21:03:27.707Z,21.73
2023-04-22T21:05:55.688Z,21.27
2023-04-22T21:08:26.087Z,21.13
2023-04-22T21:10:54.440Z,19.87
2023-04-22T21:13:22.001Z,23.07
2023-04-22T21:15:52.019Z,21.90
2023-04-22T21:18:21.781Z,22.80
2023-04-22T21:20:51.295Z,21.93
2023-04-22T21:23:20.446Z,23.23
2023-04-22T21:25:48.609Z,20.93
2023-04-22T21:28:16.168Z,23.10
2023-04-22T21:30:43.665Z,22.93
2023-04-22T21:33:10.785Z,23.97
2023-04-22T21:35:39.303Z,25.33
2023-04-22T21:38:06.413Z,22.87
2023-04-22T21:40:33.582Z,23.57
2023-04-22T21:43:00.726Z,24.27
2023-04-22T21:45:28.436Z,26.23
2023-04-22T21:47:55.609Z,26.20
2023-04-22T21:50:24.352Z,26.97
2023-04-22T21:52:51.742Z,26.33
2023-04-22T21:55:19.552Z,26.80
2023-04-22T21:57:46.799Z,27.07
2023-04-22T22:00:20.163Z,27.07
2023-04-22T22:02:48.083Z,26.40
2023-04-22T22:05:15.818Z,27.27
2023-04-22T22:07:43.381Z,27.30
2023-04-22T22:10:12.080Z,26.57
2023-04-22T22:12:39.308Z,26.70
2023-04-22T22:15:08.660Z,28.93
2023-04-22T22:17:38.047Z,27.00
2023-04-22T22:20:11.905Z,27.03
2023-04-22T22:22:39.582Z,29.97
2023-04-22T22:25:10.745Z,30.67
2023-04-22T22:27:38.774Z,30.90
2023-04-22T22:30:06.595Z,31.77
2023-04-22T22:32:33.734Z,31.00
2023-04-22T22:35:00.870Z,32.03
2023-04-22T22:37:28.164Z,30.47
2023-04-22T22:39:56.480Z,33.87
2023-04-22T22:42:23.578Z,32.37
2023-04-22T22:44:50.752Z,32.70
2023-04-22T22:47:18.417Z,33.93
2023-04-22T22:49:46.041Z,33.33
2023-04-22T22:52:13.408Z,32.57
2023-04-22T22:54:41.111Z,34.97
2023-04-22T22:57:09.106Z,32.50
2023-04-22T22:59:39.424Z,32.33
2023-04-22T23:02:06.875Z,33.70
2023-04-22T23:04:34.227Z,33.33
2023-04-22T23:07:01.504Z,31.60
2023-04-22T23:09:28.606Z,34.53
2023-04-22T23:11:55.767Z,33.23
2023-04-22T23:14:23.236Z,31.63
2023-04-22T23:16:50.950Z,35.20
2023-04-22T23:19:18.242Z,32.70
2023-04-22T23:21:45.821Z,31.57
2023-04-22T23:24:13.939Z,35.27
2023-04-22T23:26:41.345Z,36.03
2023-04-22T23:29:09.075Z,38.03
2023-04-22T23:31:36.656Z,35.23
2023-04-22T23:34:05.455Z,36.97
2023-04-22T23:36:33.770Z,36.30
2023-04-22T23:39:01.181Z,35.80
2023-04-22T23:41:28.435Z,37.00
2023-04-22T23:43:55.536Z,35.87
2023-04-22T23:46:22.742Z,34.30
2023-04-22T23:48:49.910Z,33.57
2023-04-22T23:51:17.276Z,35.70
2023-04-22T23:53:45.297Z,33.03
2023-04-22T23:56:13.209Z,32.70
2023-04-22T23:58:40.576Z,32.20
